createdAt,value
2023-01-09T00:02:13.395Z,90.29
2023-01-09T00:07:20.236Z,90.42
2023-01-09T00:12:28.096Z,90.40
2023-01-09T00:17:34.648Z,90.19
2023-01-09T00:22:41.212Z,90.26
2023-01-09T00:27:49.317Z,90.40
2023-01-09T00:32:56.712Z,90.33
2023-01-09T00:38:04.964Z,90.21
2023-01-09T00:43:12.848Z,90.32
2023-01-09T00:48:26.981Z,90.37
2023-01-09T00:53:37.836Z,90.41
2023-01-09T00:58:46.247Z,90.58
2023-01-09T01:03:53.059Z,90.55
2023-01-09T01:08:59.593Z,90.32
2023-01-09T01:14:07.528Z,90.45
2023-01-09T01:19:14.043Z,90.35
2023-01-09T01:24:20.847Z,90.52
2023-01-09T01:29:31.314Z,90.38
2023-01-09T01:34:37.762Z,90.54
2023-01-09T01:39:45.273Z,90.34
2023-01-09T01:45:11.418Z,90.74
2023-01-09T01:50:33.942Z,90.99
2023-01-09T01:55:45.502Z,90.87
2023-01-09T02:00:53.771Z,90.78
2023-01-09T02:06:00.756Z,90.93
2023-01-09T02:11:09.335Z,90.68
2023-01-09T02:16:37.078Z,90.65
2023-01-09T02:21:53.413Z,90.77
2023-01-09T02:27:37.955Z,90.85
2023-01-09T02:33:01.271Z,90.72
2023-01-09T02:38:19.604Z,90.73
2023-01-09T02:43:29.509Z,90.76
2023-01-09T02:48:37.569Z,90.55
2023-01-09T02:54:21.597Z,90.91
2023-01-09T02:59:34.483Z,90.88
2023-01-09T03:04:55.767Z,91.13
2023-01-09T03:10:08.410Z,91.25
2023-01-09T03:15:17.633Z,90.96
2023-01-09T03:20:29.149Z,90.89
2023-01-09T03:25:36.341Z,91.17
2023-01-09T03:30:42.811Z,91.18
2023-01-09T03:35:50.992Z,91.06
2023-01-09T03:40:57.661Z,91.29
2023-01-09T03:46:05.012Z,91.51
2023-01-09T03:51:14.007Z,91.39
2023-01-09T03:56:20.292Z,91.02
2023-01-09T04:01:26.909Z,91.54
2023-01-09T04:06:34.750Z,91.41
2023-01-09T04:11:41.284Z,91.28
2023-01-09T04:16:48.345Z,91.29
2023-01-09T04:21:56.353Z,91.66
2023-01-09T04:27:02.900Z,91.31
2023-01-09T04:32:09.219Z,91.36
2023-01-09T04:37:17.174Z,91.58
2023-01-09T04:42:24.882Z,91.34
2023-01-09T04:47:33.052Z,91.17
2023-01-09T04:52:41.763Z,91.24
2023-01-09T04:57:48.286Z,91.27
2023-01-09T05:02:54.738Z,91.31
2023-01-09T05:08:03.066Z,91.08
2023-01-09T05:13:10.569Z,91.22
2023-01-09T05:18:17.312Z,91.14
2023-01-09T05:23:24.988Z,90.86
2023-01-09T05:28:31.482Z,91.16
2023-01-09T05:33:37.814Z,91.19
2023-01-09T05:38:45.990Z,91.11
2023-01-09T05:43:52.381Z,90.96
2023-01-09T05:48:58.826Z,91.00
2023-01-09T05:54:07.855Z,91.00
2023-01-09T05:59:14.002Z,90.69
2023-01-09T06:04:20.437Z,90.30
2023-01-09T06:09:28.868Z,90.43
2023-01-09T06:14:35.375Z,90.96
2023-01-09T06:19:42.201Z,90.88
2023-01-09T06:24:51.036Z,91.04
2023-01-09T06:29:58.650Z,90.98
2023-01-09T06:35:08.316Z,91.07
2023-01-09T06:40:16.894Z,91.24
2023-01-09T06:45:23.723Z,91.21
2023-01-09T06:50:30.848Z,91.36
2023-01-09T06:55:38.747Z,91.12
2023-01-09T07:00:45.224Z,91.15
2023-01-09T07:05:52.391Z,90.91
2023-01-09T07:11:00.627Z,91.27
2023-01-09T07:16:09.113Z,91.17
2023-01-09T07:21:15.946Z,90.99
2023-01-09T07:26:24.469Z,91.55
2023-01-09T07:31:31.129Z,91.88
2023-01-09T07:36:37.449Z,91.79
2023-01-09T07:41:46.470Z,91.88
2023-01-09T07:46:54.803Z,92.02
2023-01-09T07:52:01.656Z,92.08
2023-01-09T07:57:11.557Z,92.14
2023-01-09T08:02:18.497Z,92.24
2023-01-09T08:07:25.219Z,92.27
2023-01-09T08:12:33.178Z,92.23
2023-01-09T08:17:39.697Z,92.16
2023-01-09T08:22:50.469Z,92.51
2023-01-09T08:27:58.935Z,92.56
2023-01-09T08:33:06.289Z,92.44
2023-01-09T08:38:13.276Z,92.63
2023-01-09T08:43:38.799Z,92.66
2023-01-09T08:48:45.939Z,92.22
2023-01-09T08:53:52.553Z,92.21
2023-01-09T08:59:00.582Z,92.15
2023-01-09T09:04:07.603Z,91.84
2023-01-09T09:09:14.157Z,91.65
2023-01-09T09:14:39.551Z,91.62
2023-01-09T09:19:46.092Z,91.12
2023-01-09T09:24:52.484Z,90.73
2023-01-09T09:30:00.391Z,90.29
2023-01-09T09:35:07.741Z,90.53
2023-01-09T09:40:22.303Z,89.97
2023-01-09T09:45:45.266Z,90.19
2023-01-09T09:51:25.890Z,89.92
2023-01-09T09:56:39.702Z,90.03
2023-01-09T10:01:55.566Z,89.93
2023-01-09T10:07:09.659Z,89.60
2023-01-09T10:12:28.858Z,89.34
2023-01-09T10:18:00.925Z,89.31
2023-01-09T10:23:31.189Z,89.85
2023-01-09T10:29:06.072Z,89.87
2023-01-09T10:34:31.446Z,89.92
2023-01-09T10:39:45.430Z,90.06
2023-01-09T10:44:59.171Z,89.74
2023-01-09T10:50:22.854Z,89.77
2023-01-09T10:55:40.035Z,90.07
2023-01-09T11:00:50.006Z,90.48
2023-01-09T11:05:59.885Z,91.29
2023-01-09T11:11:06.851Z,91.69
2023-01-09T11:16:22.875Z,91.53
2023-01-09T11:21:36.469Z,91.94
2023-01-09T11:26:42.934Z,92.34
2023-01-09T11:31:56.138Z,92.37
2023-01-09T11:37:11.710Z,92.81
2023-01-09T11:42:44.485Z,92.92
2023-01-09T11:47:51.488Z,93.12
2023-01-09T11:53:19.308Z,93.25
2023-01-09T11:58:35.521Z,93.56
2023-01-09T12:04:18.928Z,93.78
2023-01-09T12:09:38.883Z,93.93
2023-01-09T12:15:01.945Z,94.25
2023-01-09T12:20:34.670Z,93.94
2023-01-09T12:25:55.749Z,94.29
2023-01-09T12:31:19.583Z,94.39
2023-01-09T12:36:44.374Z,94.64
2023-01-09T12:42:16.497Z,94.56
2023-01-09T12:47:47.254Z,94.72
2023-01-09T12:53:07.852Z,94.90
2023-01-09T12:58:31.266Z,95.18
2023-01-09T13:03:43.665Z,95.06
2023-01-09T13:08:55.067Z,94.84
2023-01-09T13:14:07.137Z,94.90
2023-01-09T13:19:20.070Z,95.06
2023-01-09T13:24:36.112Z,95.31
2023-01-09T13:29:48.146Z,95.23
2023-01-09T13:34:57.971Z,95.36
2023-01-09T13:40:08.001Z,95.17
2023-01-09T13:45:25.894Z,95.62
2023-01-09T13:50:32.784Z,95.38
2023-01-09T13:55:39.477Z,95.51
2023-01-09T14:01:00.303Z,95.79
2023-01-09T14:06:21.877Z,95.77
2023-01-09T14:11:29.454Z,95.51
2023-01-09T14:16:39.725Z,95.88
2023-01-09T14:21:55.010Z,95.82
2023-01-09T14:27:03.450Z,95.89
2023-01-09T14:32:57.846Z,95.86
2023-01-09T14:50:51.557Z,94.82
2023-01-09T14:56:06.090Z,95.24
2023-01-09T15:01:23.162Z,95.54
2023-01-09T15:06:37.438Z,95.57
2023-01-09T15:11:44.431Z,95.50
2023-01-09T15:16:51.396Z,95.77
2023-01-09T15:22:05.451Z,95.91
2023-01-09T15:27:19.504Z,95.79
2023-01-09T15:32:33.878Z,95.88
2023-01-09T15:37:42.221Z,96.17
2023-01-09T15:43:00.300Z,96.44
2023-01-09T15:48:27.319Z,96.36
2023-01-09T15:53:36.079Z,96.39
2023-01-09T15:58:47.656Z,96.49
2023-01-09T16:03:56.110Z,96.38
2023-01-09T16:09:06.014Z,96.72
2023-01-09T16:14:20.730Z,96.59
2023-01-09T16:19:47.041Z,96.67
2023-01-09T16:24:57.928Z,96.68
2023-01-09T16:30:07.442Z,96.61
2023-01-09T16:35:18.439Z,96.87
2023-01-09T16:40:30.216Z,96.79
2023-01-09T16:45:39.467Z,97.08
2023-01-09T16:50:47.415Z,96.82
2023-01-09T16:55:56.488Z,96.99
2023-01-09T17:01:02.804Z,96.96
2023-01-09T17:06:12.632Z,97.02
2023-01-09T17:11:25.102Z,97.20
2023-01-09T17:16:33.010Z,97.12
2023-01-09T17:21:39.949Z,97.18
2023-01-09T17:27:09.820Z,97.11
2023-01-09T17:32:17.671Z,97.25
2023-01-09T17:37:24.666Z,97.24
2023-01-09T17:42:33.176Z,97.46
2023-01-09T17:47:39.663Z,97.27
2023-01-09T17:52:47.863Z,97.37
2023-01-09T17:57:56.083Z,97.31
2023-01-09T18:03:03.440Z,97.42
2023-01-09T18:08:14.516Z,97.37
2023-01-09T18:13:23.383Z,97.25
2023-01-09T18:18:30.055Z,97.39
2023-01-09T18:23:38.061Z,97.27
2023-01-09T18:28:47.155Z,97.28
2023-01-09T18:33:54.583Z,97.35
2023-01-09T18:39:04.015Z,97.02
2023-01-09T18:44:13.402Z,97.15
2023-01-09T18:49:20.332Z,97.09
2023-01-09T18:54:31.717Z,97.08
2023-01-09T18:59:41.424Z,96.88
2023-01-09T19:04:49.204Z,96.76
2023-01-09T19:09:58.518Z,96.86
2023-01-09T19:15:11.826Z,96.75
2023-01-09T19:20:20.070Z,96.65
2023-01-09T19:25:27.181Z,96.59
2023-01-09T19:30:37.044Z,96.57
2023-01-09T19:35:46.305Z,96.53
2023-01-09T19:40:54.195Z,96.34
2023-01-09T19:46:03.777Z,96.22
2023-01-09T19:51:11.275Z,95.83
2023-01-09T19:56:21.238Z,95.77
2023-01-09T20:01:32.709Z,95.70
2023-01-09T20:06:45.084Z,95.64
2023-01-09T20:11:52.946Z,95.27
2023-01-09T20:17:04.644Z,95.13
2023-01-09T20:22:12.434Z,94.88
2023-01-09T20:27:19.819Z,95.02
2023-01-09T20:32:30.286Z,94.88
2023-01-09T20:37:40.632Z,94.71
2023-01-09T20:42:47.913Z,94.73
2023-01-09T20:47:57.076Z,94.51
2023-01-09T20:53:05.060Z,94.38
2023-01-09T20:58:13.147Z,94.45
2023-01-09T21:03:21.884Z,94.55
2023-01-09T21:08:28.470Z,94.40
2023-01-09T21:13:35.292Z,94.22
2023-01-09T21:18:45.857Z,94.17
2023-01-09T21:23:54.720Z,94.01
2023-01-09T21:29:08.585Z,93.81
2023-01-09T21:34:20.309Z,93.75
2023-01-09T21:39:27.232Z,93.70
2023-01-09T21:44:51.241Z,93.68
2023-01-09T21:49:59.154Z,93.48
2023-01-09T21:55:06.153Z,93.65
2023-01-09T22:00:15.171Z,93.49
2023-01-09T22:05:24.953Z,93.45
2023-01-09T22:10:32.711Z,93.37
2023-01-09T22:15:39.724Z,93.28
2023-01-09T22:20:48.870Z,92.86
2023-01-09T22:25:55.051Z,92.97
2023-01-09T22:31:01.478Z,93.03
2023-01-09T22:36:31.627Z,92.75
2023-01-09T22:41:38.576Z,92.90
2023-01-09T22:46:45.013Z,93.09
2023-01-09T22:51:52.806Z,93.07
2023-01-09T22:56:59.287Z,93.07
2023-01-09T23:02:07.203Z,93.16
2023-01-09T23:07:15.239Z,92.86
2023-01-09T23:12:22.011Z,92.62
2023-01-09T23:17:28.526Z,92.96
2023-01-09T23:22:36.593Z,92.96
2023-01-09T23:27:43.616Z,93.07
2023-01-09T23:32:50.008Z,93.25
2023-01-09T23:37:58.080Z,93.00
2023-01-09T23:43:10.719Z,93.24
2023-01-09T23:48:19.219Z,93.26
2023-01-09T23:53:27.305Z,92.94
2023-01-09T23:58:34.689Z,93.01
